createdAt,value
2022-10-17T00:00:56.053Z,100.00
2022-10-17T00:03:22.989Z,100.00
2022-10-17T00:05:50.027Z,100.00
2022-10-17T00:08:19.249Z,100.00
2022-10-17T00:10:46.498Z,100.00
2022-10-17T00:13:13.494Z,100.00
2022-10-17T00:15:44.931Z,100.00
2022-10-17T00:18:11.926Z,100.00
2022-10-17T00:20:38.878Z,100.00
2022-10-17T00:23:05.785Z,100.00
2022-10-17T00:25:32.812Z,100.00
2022-10-17T00:27:59.755Z,100.00
2022-10-17T00:30:26.732Z,100.00
2022-10-17T00:32:53.704Z,100.00
2022-10-17T00:35:21.123Z,100.00
2022-10-17T00:37:48.795Z,100.00
2022-10-17T00:40:15.865Z,100.00
2022-10-17T00:42:42.849Z,100.00
2022-10-17T00:45:27.949Z,100.00
2022-10-17T00:48:08.547Z,100.00
2022-10-17T00:50:39.306Z,100.00
2022-10-17T00:53:09.481Z,100.00
2022-10-17T00:55:50.073Z,100.00
2022-10-17T00:58:18.290Z,100.00
2022-10-17T01:00:47.503Z,100.00
2022-10-17T01:03:16.491Z,100.00
2022-10-17T01:05:43.622Z,100.00
2022-10-17T01:08:11.510Z,100.00
2022-10-17T01:11:12.543Z,100.00
2022-10-17T01:13:50.316Z,100.00
2022-10-17T01:16:48.830Z,100.00
2022-10-17T01:20:16.309Z,100.00
2022-10-17T01:23:12.593Z,100.00
2022-10-17T01:26:08.671Z,100.00
2022-10-17T01:29:21.175Z,100.00
2022-10-17T01:32:02.602Z,100.00
2022-10-17T01:34:57.377Z,100.00
2022-10-17T01:37:42.708Z,100.00
2022-10-17T01:40:28.231Z,100.00
2022-10-17T01:43:12.590Z,100.00
2022-10-17T01:45:50.670Z,100.00
2022-10-17T01:48:30.006Z,100.00
2022-10-17T01:51:36.070Z,100.00
2022-10-17T01:54:14.891Z,100.00
2022-10-17T01:56:43.543Z,100.00
2022-10-17T01:59:42.703Z,100.00
2022-10-17T02:02:12.018Z,100.00
2022-10-17T02:04:40.467Z,100.00
2022-10-17T02:07:12.424Z,100.00
2022-10-17T02:09:40.492Z,100.00
2022-10-17T02:12:51.914Z,100.00
2022-10-17T02:16:01.527Z,100.00
2022-10-17T02:18:52.605Z,100.00
2022-10-17T02:21:33.814Z,100.00
2022-10-17T02:24:35.763Z,100.00
2022-10-17T02:27:29.800Z,100.00
2022-10-17T02:30:16.553Z,100.00
2022-10-17T02:33:06.850Z,100.00
2022-10-17T02:35:41.281Z,100.00
2022-10-17T02:38:10.978Z,100.00
2022-10-17T02:40:39.553Z,100.00
2022-10-17T02:43:07.781Z,100.00
2022-10-17T02:45:37.922Z,100.00
2022-10-17T02:48:34.691Z,100.00
2022-10-17T02:51:37.305Z,100.00
2022-10-17T02:54:22.347Z,100.00
2022-10-17T02:57:25.594Z,100.00
2022-10-17T02:59:53.607Z,100.00
2022-10-17T03:02:20.542Z,100.00
2022-10-17T03:04:47.553Z,100.00
2022-10-17T03:07:16.027Z,100.00
2022-10-17T03:09:43.639Z,100.00
2022-10-17T03:12:10.651Z,100.00
2022-10-17T03:14:37.724Z,100.00
2022-10-17T03:17:04.911Z,100.00
2022-10-17T03:19:32.154Z,100.00
2022-10-17T03:21:59.120Z,100.00
2022-10-17T03:24:26.110Z,100.00
2022-10-17T03:26:53.430Z,100.00
2022-10-17T03:29:20.582Z,100.00
2022-10-17T03:31:47.933Z,100.00
2022-10-17T03:34:17.660Z,100.00
2022-10-17T03:36:45.639Z,100.00
2022-10-17T03:39:12.736Z,100.00
2022-10-17T03:41:39.730Z,100.00
2022-10-17T03:44:06.751Z,100.00
2022-10-17T03:46:33.850Z,100.00
2022-10-17T03:49:01.125Z,100.00
2022-10-17T03:51:28.457Z,100.00
2022-10-17T03:54:01.997Z,100.00
2022-10-17T03:56:28.969Z,100.00
2022-10-17T03:59:14.182Z,100.00
2022-10-17T04:01:43.393Z,100.00
2022-10-17T04:04:10.808Z,100.00
2022-10-17T04:06:38.767Z,100.00
2022-10-17T04:09:07.546Z,100.00
2022-10-17T04:11:53.547Z,100.00
2022-10-17T04:14:21.728Z,100.00
2022-10-17T04:16:48.735Z,100.00
2022-10-17T04:19:20.099Z,100.00
2022-10-17T04:21:48.267Z,100.00
2022-10-17T04:24:15.753Z,100.00
2022-10-17T04:27:01.189Z,100.00
2022-10-17T04:29:30.621Z,100.00
2022-10-17T04:32:12.310Z,100.00
2022-10-17T04:34:43.645Z,100.00
2022-10-17T04:37:11.050Z,100.00
2022-10-17T04:39:38.153Z,100.00
2022-10-17T04:42:05.471Z,100.00
2022-10-17T04:44:33.652Z,100.00
2022-10-17T04:47:01.140Z,100.00
2022-10-17T04:49:28.313Z,100.00
2022-10-17T04:52:00.093Z,100.00
2022-10-17T04:54:32.390Z,100.00
2022-10-17T04:57:06.752Z,100.00
2022-10-17T04:59:34.429Z,100.00
2022-10-17T05:02:13.217Z,100.00
2022-10-17T05:04:40.312Z,100.00
2022-10-17T05:07:08.799Z,100.00
2022-10-17T05:09:38.310Z,100.00
2022-10-17T05:12:09.445Z,100.00
2022-10-17T05:14:39.374Z,100.00
2022-10-17T05:17:06.352Z,100.00
2022-10-17T05:19:33.316Z,100.00
2022-10-17T05:22:00.347Z,100.00
2022-10-17T05:24:27.335Z,100.00
2022-10-17T05:26:54.315Z,100.00
2022-10-17T05:29:21.530Z,100.00
2022-10-17T05:31:53.519Z,100.00
2022-10-17T05:34:20.594Z,100.00
2022-10-17T05:36:47.610Z,100.00
2022-10-17T05:39:19.713Z,100.00
2022-10-17T05:41:48.553Z,100.00
2022-10-17T05:44:16.626Z,100.00
2022-10-17T05:46:49.620Z,100.00
2022-10-17T05:49:31.939Z,100.00
2022-10-17T05:52:00.499Z,100.00
2022-10-17T05:54:28.700Z,100.00
2022-10-17T05:56:56.612Z,100.00
2022-10-17T05:59:28.284Z,100.00
2022-10-17T06:02:07.154Z,100.00
2022-10-17T06:04:34.786Z,100.00
2022-10-17T06:07:03.058Z,100.00
2022-10-17T06:09:31.866Z,100.00
2022-10-17T06:11:58.894Z,100.00
2022-10-17T06:14:25.931Z,100.00
2022-10-17T06:16:57.311Z,100.00
2022-10-17T06:19:24.295Z,100.00
2022-10-17T06:21:51.494Z,100.00
2022-10-17T06:24:21.957Z,100.00
2022-10-17T06:26:51.718Z,100.00
2022-10-17T06:29:20.848Z,100.00
2022-10-17T06:31:50.829Z,100.00
2022-10-17T06:34:18.947Z,100.00
2022-10-17T06:36:46.768Z,100.00
2022-10-17T06:39:14.423Z,100.00
2022-10-17T06:41:55.546Z,100.00
2022-10-17T06:44:36.329Z,100.00
2022-10-17T06:47:21.803Z,100.00
2022-10-17T06:49:50.605Z,100.00
2022-10-17T06:52:37.833Z,100.00
2022-10-17T06:55:24.402Z,100.00
2022-10-17T06:58:09.218Z,100.00
2022-10-17T07:01:05.109Z,100.00
2022-10-17T07:03:32.652Z,100.00
2022-10-17T07:06:00.952Z,100.00
2022-10-17T07:08:28.171Z,100.00
2022-10-17T07:10:56.226Z,100.00
2022-10-17T07:13:23.369Z,100.00
2022-10-17T07:15:51.251Z,100.00
2022-10-17T07:18:18.724Z,100.00
2022-10-17T07:20:54.404Z,100.00
2022-10-17T07:23:22.759Z,100.00
2022-10-17T07:25:49.973Z,100.00
2022-10-17T07:28:17.846Z,100.00
2022-10-17T07:30:47.514Z,100.00
2022-10-17T07:33:17.452Z,100.00
2022-10-17T07:35:45.034Z,99.09
2022-10-17T07:38:12.072Z,100.00
2022-10-17T07:40:39.112Z,98.82
2022-10-17T07:43:06.279Z,97.15
2022-10-17T07:45:33.214Z,96.62
2022-10-17T07:48:00.210Z,95.67
2022-10-17T07:50:27.190Z,89.31
2022-10-17T07:52:54.074Z,79.59
2022-10-17T07:55:20.988Z,81.32
2022-10-17T07:57:47.895Z,78.77
2022-10-17T08:00:15.134Z,76.50
2022-10-17T08:02:42.871Z,75.10
2022-10-17T08:05:09.970Z,72.53
2022-10-17T08:07:37.066Z,73.88
2022-10-17T08:10:04.698Z,71.49
2022-10-17T08:12:34.258Z,69.67
2022-10-17T08:15:02.062Z,63.29
2022-10-17T08:17:29.169Z,63.08
2022-10-17T08:19:56.121Z,65.73
2022-10-17T08:22:23.057Z,61.83
2022-10-17T08:24:50.022Z,61.83
2022-10-17T08:27:21.522Z,60.29
2022-10-17T08:29:48.810Z,59.94
2022-10-17T08:32:15.770Z,61.24
2022-10-17T08:34:42.775Z,65.59
2022-10-17T08:39:42.289Z,60.82
2022-10-17T08:42:41.431Z,55.47
2022-10-17T08:45:55.005Z,54.66
2022-10-17T08:48:26.172Z,54.96
2022-10-17T08:50:59.380Z,57.22
2022-10-17T08:53:36.892Z,54.19
2022-10-17T08:56:47.989Z,52.50
2022-10-17T08:59:24.780Z,52.33
2022-10-17T09:02:14.559Z,50.56
2022-10-17T09:05:03.320Z,49.86
2022-10-17T09:08:00.603Z,49.88
2022-10-17T09:10:42.809Z,50.82
2022-10-17T09:13:44.202Z,52.43
2022-10-17T09:16:24.435Z,56.94
2022-10-17T09:19:17.475Z,54.81
2022-10-17T09:21:59.889Z,49.98
2022-10-17T09:24:44.498Z,45.30
2022-10-17T09:27:38.805Z,44.10
2022-10-17T09:30:44.025Z,45.94
2022-10-17T09:33:35.084Z,43.15
2022-10-17T09:36:16.200Z,45.15
2022-10-17T09:38:55.990Z,45.55
2022-10-17T09:41:46.863Z,45.15
2022-10-17T09:44:36.382Z,46.47
2022-10-17T09:47:32.140Z,46.59
2022-10-17T09:49:59.040Z,45.29
2022-10-17T09:52:34.010Z,45.46
2022-10-17T09:55:22.570Z,45.81
2022-10-17T09:58:02.784Z,46.50
2022-10-17T10:00:42.343Z,47.14
2022-10-17T10:03:20.274Z,47.05
2022-10-17T10:06:22.330Z,43.47
2022-10-17T10:08:58.678Z,44.83
2022-10-17T10:11:47.569Z,44.78
2022-10-17T10:14:24.224Z,45.89
2022-10-17T10:16:55.578Z,47.08
2022-10-17T10:19:33.776Z,48.24
2022-10-17T10:22:19.042Z,49.71
2022-10-17T10:24:46.537Z,49.87
2022-10-17T10:27:17.280Z,51.63
2022-10-17T10:29:50.709Z,51.89
2022-10-17T10:32:25.508Z,49.63
2022-10-17T10:35:19.419Z,51.17
2022-10-17T10:37:54.050Z,49.08
2022-10-17T10:40:27.367Z,48.88
2022-10-17T10:43:03.968Z,47.77
2022-10-17T10:45:53.391Z,49.97
2022-10-17T10:48:24.735Z,48.35
2022-10-17T10:51:07.743Z,48.96
2022-10-17T10:53:55.880Z,48.18
2022-10-17T10:56:31.099Z,45.88
2022-10-17T10:59:27.999Z,42.43
2022-10-17T11:02:15.769Z,41.70
2022-10-17T11:05:24.186Z,43.13
2022-10-17T11:07:52.418Z,42.41
2022-10-17T11:10:33.794Z,43.43
2022-10-17T11:13:20.112Z,45.35
2022-10-17T11:16:30.867Z,43.26
2022-10-17T11:19:20.993Z,45.74
2022-10-17T11:22:11.196Z,45.84
2022-10-17T11:24:57.164Z,41.70
2022-10-17T11:27:29.659Z,41.52
2022-10-17T11:29:58.120Z,38.44
2022-10-17T11:32:36.644Z,39.70
2022-10-17T11:35:34.346Z,41.86
2022-10-17T11:38:30.718Z,39.67
2022-10-17T11:41:00.242Z,40.05
2022-10-17T11:44:04.052Z,39.42
2022-10-17T11:46:35.928Z,38.12
2022-10-17T11:49:20.407Z,38.77
2022-10-17T11:52:37.793Z,36.24
2022-10-17T11:55:28.310Z,37.02
2022-10-17T11:58:33.326Z,36.34
2022-10-17T12:01:15.227Z,35.98
2022-10-17T12:04:03.850Z,36.09
2022-10-17T12:07:33.392Z,37.32
2022-10-17T12:10:23.966Z,35.32
2022-10-17T12:12:51.113Z,36.76
2022-10-17T12:15:23.417Z,36.81
2022-10-17T12:18:04.011Z,36.35
2022-10-17T12:20:38.506Z,35.22
2022-10-17T12:23:11.646Z,37.71
2022-10-17T12:25:57.114Z,37.58
2022-10-17T12:28:39.526Z,37.77
2022-10-17T12:31:13.014Z,33.79
2022-10-17T12:33:59.762Z,35.80
2022-10-17T12:36:26.577Z,34.10
2022-10-17T12:39:02.583Z,31.45
2022-10-17T12:41:38.446Z,33.32
2022-10-17T12:44:14.706Z,32.59
2022-10-17T12:46:51.299Z,33.53
2022-10-17T12:49:46.615Z,30.63
2022-10-17T12:52:31.367Z,31.84
2022-10-17T12:55:11.036Z,30.62
2022-10-17T12:57:56.766Z,30.86
2022-10-17T13:01:19.133Z,31.44
2022-10-17T13:03:48.652Z,30.33
2022-10-17T13:06:27.335Z,31.12
2022-10-17T13:09:10.607Z,30.79
2022-10-17T13:11:39.540Z,30.32
2022-10-17T13:14:14.735Z,29.92
2022-10-17T13:16:59.356Z,29.60
2022-10-17T13:19:50.441Z,30.67
2022-10-17T13:22:28.539Z,30.53
2022-10-17T13:25:10.077Z,30.65
2022-10-17T13:27:37.587Z,31.03
2022-10-17T13:30:32.149Z,31.42
2022-10-17T13:33:00.882Z,32.77
2022-10-17T13:36:00.091Z,34.72
2022-10-17T13:38:29.067Z,36.82
2022-10-17T13:41:05.897Z,37.75
2022-10-17T13:43:38.838Z,39.71
2022-10-17T13:46:32.479Z,43.21
2022-10-17T13:48:53.830Z,44.18
2022-10-17T13:51:20.878Z,44.31
2022-10-17T13:53:47.836Z,46.39
2022-10-17T13:56:28.271Z,47.38
2022-10-17T13:59:01.511Z,49.24
2022-10-17T14:01:29.769Z,49.69
2022-10-17T14:04:08.416Z,52.43
2022-10-17T14:06:49.314Z,54.44
2022-10-17T14:09:25.411Z,52.48
2022-10-17T14:12:04.231Z,51.84
2022-10-17T14:14:46.056Z,52.92
2022-10-17T14:17:29.280Z,53.09
2022-10-17T14:23:10.795Z,56.28
2022-10-17T14:25:40.414Z,58.30
2022-10-17T14:28:14.723Z,58.31
2022-10-17T14:30:56.750Z,59.46
2022-10-17T14:33:29.522Z,59.30
2022-10-17T14:36:00.284Z,58.79
2022-10-17T14:38:29.175Z,59.10
2022-10-17T14:44:16.255Z,60.67
2022-10-17T14:46:50.467Z,61.26
2022-10-17T14:49:25.361Z,62.26
2022-10-17T14:52:28.853Z,61.94
2022-10-17T14:54:58.062Z,62.46
2022-10-17T14:57:33.791Z,62.36
2022-10-17T15:00:00.759Z,62.77
2022-10-17T15:02:30.504Z,61.27
2022-10-17T15:04:57.715Z,61.71
2022-10-17T15:07:24.710Z,60.64
2022-10-17T15:09:53.904Z,59.04
2022-10-17T15:12:25.234Z,60.51
2022-10-17T15:14:53.780Z,63.60
2022-10-17T15:17:28.282Z,63.87
2022-10-17T15:19:55.911Z,63.36
2022-10-17T15:22:23.863Z,65.08
2022-10-17T15:24:50.968Z,64.59
2022-10-17T15:27:26.633Z,64.90
2022-10-17T15:29:53.579Z,67.00
2022-10-17T15:32:20.504Z,67.03
2022-10-17T15:34:47.545Z,67.99
2022-10-17T15:37:34.566Z,67.58
2022-10-17T15:40:01.576Z,67.89
2022-10-17T15:42:30.310Z,68.97
2022-10-17T15:44:58.279Z,68.86
2022-10-17T15:47:36.042Z,67.05
2022-10-17T15:50:04.856Z,67.12
2022-10-17T15:52:32.219Z,66.95
2022-10-17T15:55:01.035Z,69.33
2022-10-17T15:57:40.509Z,77.17
2022-10-17T16:00:16.664Z,84.18
2022-10-17T16:02:44.714Z,85.09
2022-10-17T16:05:25.573Z,87.85
2022-10-17T16:07:53.751Z,90.78
2022-10-17T16:10:22.129Z,91.99
2022-10-17T16:12:50.208Z,91.95
2022-10-17T16:15:25.029Z,91.37
2022-10-17T16:17:54.672Z,94.06
2022-10-17T16:20:23.535Z,91.81
2022-10-17T16:22:50.951Z,95.98
2022-10-17T16:25:24.913Z,98.20
2022-10-17T16:27:55.005Z,100.00
2022-10-17T16:30:24.817Z,100.00
2022-10-17T16:32:53.798Z,100.00
2022-10-17T16:35:33.207Z,100.00
2022-10-17T16:38:05.270Z,100.00
2022-10-17T16:40:32.313Z,100.00
2022-10-17T16:42:59.322Z,100.00
2022-10-17T16:45:26.299Z,100.00
2022-10-17T16:47:53.523Z,100.00
2022-10-17T16:50:20.743Z,100.00
2022-10-17T16:52:47.940Z,100.00
2022-10-17T16:55:18.698Z,100.00
2022-10-17T16:57:48.452Z,100.00
2022-10-17T17:00:16.544Z,100.00
2022-10-17T17:02:43.941Z,100.00
2022-10-17T17:05:11.475Z,100.00
2022-10-17T17:07:38.686Z,100.00
2022-10-17T17:10:06.575Z,100.00
2022-10-17T17:12:35.358Z,100.00
2022-10-17T17:15:03.159Z,100.00
2022-10-17T17:17:48.800Z,100.00
2022-10-17T17:20:17.998Z,100.00
2022-10-17T17:22:44.997Z,100.00
2022-10-17T17:25:11.928Z,100.00
2022-10-17T17:27:39.577Z,100.00
2022-10-17T17:30:07.864Z,100.00
2022-10-17T17:32:34.937Z,100.00
2022-10-17T17:35:02.075Z,100.00
2022-10-17T17:37:29.447Z,100.00
2022-10-17T17:39:56.630Z,100.00
2022-10-17T17:42:23.605Z,100.00
2022-10-17T17:44:50.667Z,100.00
2022-10-17T17:47:17.626Z,100.00
2022-10-17T17:49:44.563Z,100.00
2022-10-17T17:52:11.468Z,100.00
2022-10-17T17:54:40.784Z,100.00
2022-10-17T17:57:08.183Z,100.00
2022-10-17T17:59:35.310Z,100.00
2022-10-17T18:02:02.886Z,100.00
2022-10-17T18:04:29.887Z,100.00
2022-10-17T18:06:56.787Z,100.00
2022-10-17T18:09:23.934Z,100.00
2022-10-17T18:11:50.887Z,100.00
2022-10-17T18:14:19.134Z,100.00
2022-10-17T18:16:46.198Z,100.00
2022-10-17T18:19:13.262Z,100.00
2022-10-17T18:21:40.148Z,100.00
2022-10-17T18:24:07.829Z,100.00
2022-10-17T18:26:35.540Z,100.00
2022-10-17T18:29:03.708Z,100.00
2022-10-17T18:31:35.242Z,100.00
2022-10-17T18:34:03.497Z,100.00
2022-10-17T18:36:32.166Z,100.00
2022-10-17T18:39:01.341Z,100.00
2022-10-17T18:41:28.701Z,100.00
2022-10-17T18:43:56.674Z,100.00
2022-10-17T18:46:30.549Z,100.00
2022-10-17T18:48:58.154Z,100.00
2022-10-17T18:51:26.184Z,100.00
2022-10-17T18:53:56.313Z,100.00
2022-10-17T18:56:24.082Z,100.00
2022-10-17T18:58:51.943Z,100.00
2022-10-17T19:01:26.571Z,100.00
2022-10-17T19:03:58.290Z,100.00
2022-10-17T19:06:32.112Z,100.00
2022-10-17T19:09:01.380Z,100.00
2022-10-17T19:11:30.450Z,100.00
2022-10-17T19:14:00.722Z,100.00
2022-10-17T19:16:34.743Z,100.00
2022-10-17T19:19:21.172Z,100.00
2022-10-17T19:21:48.553Z,100.00
2022-10-17T19:24:23.494Z,100.00
2022-10-17T19:26:55.934Z,100.00
2022-10-17T19:29:26.841Z,100.00
2022-10-17T19:34:27.912Z,100.00
2022-10-17T19:36:55.854Z,100.00
2022-10-17T19:39:25.065Z,100.00
2022-10-17T19:41:52.290Z,100.00
2022-10-17T19:44:19.907Z,100.00
2022-10-17T19:46:49.274Z,100.00
2022-10-17T19:49:16.976Z,100.00
2022-10-17T19:51:44.980Z,100.00
2022-10-17T19:54:12.658Z,100.00
2022-10-17T19:56:40.489Z,100.00
2022-10-17T19:59:08.516Z,100.00
2022-10-17T20:01:40.625Z,100.00
2022-10-17T20:04:10.703Z,100.00
2022-10-17T20:06:38.932Z,100.00
2022-10-17T20:09:08.793Z,100.00
2022-10-17T20:11:38.104Z,100.00
2022-10-17T20:14:05.886Z,100.00
2022-10-17T20:16:35.599Z,100.00
2022-10-17T20:19:07.408Z,100.00
2022-10-17T20:21:36.563Z,100.00
2022-10-17T20:24:06.684Z,100.00
2022-10-17T20:26:39.383Z,100.00
2022-10-17T20:29:16.084Z,100.00
2022-10-17T20:31:45.409Z,100.00
2022-10-17T20:34:16.133Z,100.00
2022-10-17T20:36:43.466Z,100.00
2022-10-17T20:39:13.029Z,100.00
2022-10-17T20:41:41.000Z,100.00
2022-10-17T20:44:08.212Z,100.00
2022-10-17T20:46:38.325Z,100.00
2022-10-17T20:49:07.860Z,100.00
2022-10-17T20:51:35.853Z,100.00
2022-10-17T20:54:03.809Z,100.00
2022-10-17T20:56:32.867Z,100.00
2022-10-17T20:59:10.356Z,100.00
2022-10-17T21:01:37.362Z,100.00
2022-10-17T21:06:53.327Z,100.00
2022-10-17T21:09:21.786Z,100.00
2022-10-17T21:11:51.445Z,100.00
2022-10-17T21:14:19.000Z,100.00
2022-10-17T21:16:45.936Z,100.00
2022-10-17T21:19:13.860Z,100.00
2022-10-17T21:21:44.578Z,100.00
2022-10-17T21:24:16.821Z,100.00
2022-10-17T21:26:45.557Z,100.00
2022-10-17T21:29:13.708Z,100.00
2022-10-17T21:31:43.441Z,100.00
2022-10-17T21:34:22.117Z,100.00
2022-10-17T21:36:49.596Z,100.00
2022-10-17T21:39:17.249Z,100.00
2022-10-17T21:41:44.987Z,100.00
2022-10-17T21:44:17.483Z,100.00
2022-10-17T21:46:45.552Z,100.00
2022-10-17T21:49:15.041Z,100.00
2022-10-17T21:51:42.965Z,100.00
2022-10-17T21:54:10.385Z,100.00
2022-10-17T21:56:37.828Z,100.00
2022-10-17T21:59:06.151Z,100.00
2022-10-17T22:01:38.953Z,100.00
2022-10-17T22:04:09.960Z,100.00
2022-10-17T22:06:40.504Z,100.00
2022-10-17T22:09:26.119Z,100.00
2022-10-17T22:11:55.678Z,100.00
2022-10-17T22:14:24.857Z,100.00
2022-10-17T22:16:52.439Z,100.00
2022-10-17T22:19:22.421Z,100.00
2022-10-17T22:21:50.440Z,100.00
2022-10-17T22:24:19.404Z,100.00
2022-10-17T22:26:47.327Z,100.00
2022-10-17T22:29:14.639Z,100.00
2022-10-17T22:31:42.190Z,100.00
2022-10-17T22:34:12.119Z,100.00
2022-10-17T22:36:39.246Z,100.00
2022-10-17T22:39:06.315Z,100.00
2022-10-17T22:41:33.616Z,100.00
2022-10-17T22:44:01.323Z,100.00
2022-10-17T22:46:28.913Z,100.00
2022-10-17T22:48:56.269Z,100.00
2022-10-17T22:53:55.503Z,100.00
2022-10-17T22:56:23.595Z,100.00
2022-10-17T22:58:51.603Z,100.00
2022-10-17T23:01:23.700Z,100.00
2022-10-17T23:03:52.585Z,100.00
2022-10-17T23:06:20.532Z,100.00
2022-10-17T23:08:48.096Z,100.00
2022-10-17T23:11:15.379Z,100.00
2022-10-17T23:13:42.303Z,100.00
2022-10-17T23:16:09.770Z,100.00
2022-10-17T23:18:38.041Z,100.00
2022-10-17T23:21:05.648Z,100.00
2022-10-17T23:23:32.586Z,100.00
2022-10-17T23:26:11.910Z,100.00
2022-10-17T23:28:39.809Z,100.00
2022-10-17T23:31:25.119Z,100.00
2022-10-17T23:33:52.133Z,100.00
2022-10-17T23:36:21.738Z,100.00
2022-10-17T23:38:49.145Z,100.00
2022-10-17T23:41:17.130Z,100.00
2022-10-17T23:43:44.377Z,100.00
2022-10-17T23:46:11.571Z,100.00
2022-10-17T23:48:39.663Z,100.00
2022-10-17T23:51:08.070Z,100.00
2022-10-17T23:53:36.490Z,100.00
2022-10-17T23:56:04.767Z,100.00
2022-10-17T23:58:31.800Z,100.00
